sensor_id;sensor_type;location;lat;lon;timestamp;temperature;humidity
8002;DHT22;4046;48.774;8.732;2023-06-04T00:00:44;22.80;95.10
8002;DHT22;4046;48.774;8.732;2023-06-04T00:03:10;22.80;95.10
8002;DHT22;4046;48.774;8.732;2023-06-04T00:05:35;22.80;95.10
8002;DHT22;4046;48.774;8.732;2023-06-04T00:08:01;22.80;95.00
8002;DHT22;4046;48.774;8.732;2023-06-04T00:10:27;22.80;95.10
8002;DHT22;4046;48.774;8.732;2023-06-04T00:12:53;22.80;95.10
8002;DHT22;4046;48.774;8.732;2023-06-04T00:15:18;22.80;95.10
8002;DHT22;4046;48.774;8.732;2023-06-04T00:17:44;22.80;95.10
8002;DHT22;4046;48.774;8.732;2023-06-04T00:20:11;22.80;95.10
8002;DHT22;4046;48.774;8.732;2023-06-04T00:22:37;22.80;95.00
8002;DHT22;4046;48.774;8.732;2023-06-04T00:25:03;22.90;95.10
8002;DHT22;4046;48.774;8.732;2023-06-04T00:27:29;22.80;95.00
8002;DHT22;4046;48.774;8.732;2023-06-04T00:29:55;22.80;95.00
8002;DHT22;4046;48.774;8.732;2023-06-04T00:32:22;22.80;95.00
8002;DHT22;4046;48.774;8.732;2023-06-04T00:34:53;22.80;95.00
8002;DHT22;4046;48.774;8.732;2023-06-04T00:37:22;22.80;95.00
8002;DHT22;4046;48.774;8.732;2023-06-04T00:39:48;22.70;95.00
8002;DHT22;4046;48.774;8.732;2023-06-04T00:42:14;22.70;95.00
8002;DHT22;4046;48.774;8.732;2023-06-04T00:44:40;22.40;94.80
8002;DHT22;4046;48.774;8.732;2023-06-04T00:47:17;22.90;95.00
8002;DHT22;4046;48.774;8.732;2023-06-04T00:49:44;22.70;95.00
8002;DHT22;4046;48.774;8.732;2023-06-04T00:52:14;22.70;95.00
8002;DHT22;4046;48.774;8.732;2023-06-04T00:54:40;22.80;95.00
8002;DHT22;4046;48.774;8.732;2023-06-04T00:57:06;22.70;95.00
8002;DHT22;4046;48.774;8.732;2023-06-04T00:59:38;22.70;95.00
8002;DHT22;4046;48.774;8.732;2023-06-04T01:02:21;22.70;95.00
8002;DHT22;4046;48.774;8.732;2023-06-04T01:07:45;22.70;94.90
8002;DHT22;4046;48.774;8.732;2023-06-04T01:10:13;22.70;95.00
8002;DHT22;4046;48.774;8.732;2023-06-04T01:12:40;22.70;95.00
8002;DHT22;4046;48.774;8.732;2023-06-04T01:15:07;22.70;95.00
8002;DHT22;4046;48.774;8.732;2023-06-04T01:17:41;22.70;95.00
8002;DHT22;4046;48.774;8.732;2023-06-04T01:20:25;22.70;95.00
8002;DHT22;4046;48.774;8.732;2023-06-04T01:27:55;22.70;94.90
8002;DHT22;4046;48.774;8.732;2023-06-04T01:30:26;22.70;95.00
8002;DHT22;4046;48.774;8.732;2023-06-04T01:32:57;22.60;94.90
8002;DHT22;4046;48.774;8.732;2023-06-04T01:35:23;22.60;94.90
8002;DHT22;4046;48.774;8.732;2023-06-04T01:37:49;22.40;94.80
8002;DHT22;4046;48.774;8.732;2023-06-04T01:40:15;22.60;94.90
8002;DHT22;4046;48.774;8.732;2023-06-04T01:42:42;22.70;95.30
8002;DHT22;4046;48.774;8.732;2023-06-04T01:45:08;22.60;94.80
8002;DHT22;4046;48.774;8.732;2023-06-04T01:47:34;22.60;94.90
8002;DHT22;4046;48.774;8.732;2023-06-04T01:50:05;22.60;94.90
8002;DHT22;4046;48.774;8.732;2023-06-04T01:52:38;22.60;94.90
8002;DHT22;4046;48.774;8.732;2023-06-04T01:55:05;22.60;94.90
8002;DHT22;4046;48.774;8.732;2023-06-04T01:57:33;22.60;94.90
8002;DHT22;4046;48.774;8.732;2023-06-04T01:59:59;22.60;94.90
8002;DHT22;4046;48.774;8.732;2023-06-04T02:02:26;22.60;94.90
8002;DHT22;4046;48.774;8.732;2023-06-04T02:04:52;22.60;94.80
8002;DHT22;4046;48.774;8.732;2023-06-04T02:07:19;22.60;94.80
8002;DHT22;4046;48.774;8.732;2023-06-04T02:09:48;22.60;94.80
8002;DHT22;4046;48.774;8.732;2023-06-04T02:12:14;22.60;94.90
8002;DHT22;4046;48.774;8.732;2023-06-04T02:14:40;22.60;94.80
8002;DHT22;4046;48.774;8.732;2023-06-04T02:17:11;22.60;94.80
8002;DHT22;4046;48.774;8.732;2023-06-04T02:19:44;22.60;94.80
8002;DHT22;4046;48.774;8.732;2023-06-04T02:22:11;22.50;94.80
8002;DHT22;4046;48.774;8.732;2023-06-04T02:24:38;22.50;94.80
8002;DHT22;4046;48.774;8.732;2023-06-04T02:27:05;22.60;94.80
8002;DHT22;4046;48.774;8.732;2023-06-04T02:29:32;22.50;94.80
8002;DHT22;4046;48.774;8.732;2023-06-04T02:31:58;22.50;94.80
8002;DHT22;4046;48.774;8.732;2023-06-04T02:34:24;22.50;94.70
8002;DHT22;4046;48.774;8.732;2023-06-04T02:36:50;22.50;94.70
8002;DHT22;4046;48.774;8.732;2023-06-04T02:39:19;22.50;94.70
8002;DHT22;4046;48.774;8.732;2023-06-04T02:41:45;22.50;94.70
8002;DHT22;4046;48.774;8.732;2023-06-04T02:44:11;22.50;94.70
8002;DHT22;4046;48.774;8.732;2023-06-04T02:46:38;22.50;94.70
8002;DHT22;4046;48.774;8.732;2023-06-04T02:49:04;22.60;94.70
8002;DHT22;4046;48.774;8.732;2023-06-04T02:51:30;22.50;94.70
8002;DHT22;4046;48.774;8.732;2023-06-04T02:53:56;22.50;94.70
8002;DHT22;4046;48.774;8.732;2023-06-04T02:56:21;22.50;94.70
8002;DHT22;4046;48.774;8.732;2023-06-04T02:58:52;22.50;94.70
8002;DHT22;4046;48.774;8.732;2023-06-04T03:01:20;22.50;94.70
8002;DHT22;4046;48.774;8.732;2023-06-04T03:03:49;22.40;94.60
8002;DHT22;4046;48.774;8.732;2023-06-04T03:06:16;22.40;94.70
8002;DHT22;4046;48.774;8.732;2023-06-04T03:08:43;22.40;94.60
8002;DHT22;4046;48.774;8.732;2023-06-04T03:11:09;22.40;94.60
8002;DHT22;4046;48.774;8.732;2023-06-04T03:13:35;22.40;94.70
8002;DHT22;4046;48.774;8.732;2023-06-04T03:16:02;22.40;94.60
8002;DHT22;4046;48.774;8.732;2023-06-04T03:18:28;22.40;94.60
8002;DHT22;4046;48.774;8.732;2023-06-04T03:20:54;22.40;94.60
8002;DHT22;4046;48.774;8.732;2023-06-04T03:23:21;22.40;94.60
8002;DHT22;4046;48.774;8.732;2023-06-04T03:25:47;22.40;94.60
8002;DHT22;4046;48.774;8.732;2023-06-04T03:28:13;22.40;94.60
8002;DHT22;4046;48.774;8.732;2023-06-04T03:30:40;22.40;94.60
8002;DHT22;4046;48.774;8.732;2023-06-04T03:33:06;22.40;94.60
8002;DHT22;4046;48.774;8.732;2023-06-04T03:35:35;22.40;94.60
8002;DHT22;4046;48.774;8.732;2023-06-04T03:38:01;22.40;94.60
8002;DHT22;4046;48.774;8.732;2023-06-04T03:40:27;22.40;94.60
8002;DHT22;4046;48.774;8.732;2023-06-04T03:42:52;22.40;94.60
8002;DHT22;4046;48.774;8.732;2023-06-04T03:45:18;22.50;94.60
8002;DHT22;4046;48.774;8.732;2023-06-04T03:47:44;22.30;94.50
8002;DHT22;4046;48.774;8.732;2023-06-04T03:50:10;22.30;94.50
8002;DHT22;4046;48.774;8.732;2023-06-04T03:52:36;22.30;94.50
8002;DHT22;4046;48.774;8.732;2023-06-04T03:55:02;22.30;94.50
8002;DHT22;4046;48.774;8.732;2023-06-04T03:57:29;22.30;94.50
8002;DHT22;4046;48.774;8.732;2023-06-04T03:59:55;22.30;94.50
8002;DHT22;4046;48.774;8.732;2023-06-04T04:02:21;22.30;94.50
8002;DHT22;4046;48.774;8.732;2023-06-04T04:04:46;22.30;94.50
8002;DHT22;4046;48.774;8.732;2023-06-04T04:07:12;22.30;94.80
8002;DHT22;4046;48.774;8.732;2023-06-04T04:09:38;22.30;94.40
8002;DHT22;4046;48.774;8.732;2023-06-04T04:12:05;22.30;94.40
8002;DHT22;4046;48.774;8.732;2023-06-04T04:14:31;22.30;94.40
8002;DHT22;4046;48.774;8.732;2023-06-04T04:16:57;22.30;94.40
8002;DHT22;4046;48.774;8.732;2023-06-04T04:19:23;22.30;94.40
8002;DHT22;4046;48.774;8.732;2023-06-04T04:21:49;22.30;94.40
8002;DHT22;4046;48.774;8.732;2023-06-04T04:24:26;22.30;94.40
8002;DHT22;4046;48.774;8.732;2023-06-04T04:26:53;22.30;94.40
8002;DHT22;4046;48.774;8.732;2023-06-04T04:29:22;22.30;94.40
8002;DHT22;4046;48.774;8.732;2023-06-04T04:31:51;22.30;94.30
8002;DHT22;4046;48.774;8.732;2023-06-04T04:34:17;22.30;94.40
8002;DHT22;4046;48.774;8.732;2023-06-04T04:36:46;22.20;94.30
8002;DHT22;4046;48.774;8.732;2023-06-04T04:39:22;22.20;94.30
8002;DHT22;4046;48.774;8.732;2023-06-04T04:41:49;22.30;94.30
8002;DHT22;4046;48.774;8.732;2023-06-04T04:44:14;22.30;94.30
8002;DHT22;4046;48.774;8.732;2023-06-04T04:46:40;22.20;94.30
8002;DHT22;4046;48.774;8.732;2023-06-04T04:49:07;22.20;94.30
8002;DHT22;4046;48.774;8.732;2023-06-04T04:51:33;22.20;94.30
8002;DHT22;4046;48.774;8.732;2023-06-04T04:53:59;22.20;94.30
8002;DHT22;4046;48.774;8.732;2023-06-04T04:56:28;22.20;94.30
8002;DHT22;4046;48.774;8.732;2023-06-04T04:58:55;22.20;94.30
8002;DHT22;4046;48.774;8.732;2023-06-04T05:01:21;22.20;94.30
8002;DHT22;4046;48.774;8.732;2023-06-04T05:03:48;22.20;94.30
8002;DHT22;4046;48.774;8.732;2023-06-04T05:06:14;22.20;94.30
8002;DHT22;4046;48.774;8.732;2023-06-04T05:08:40;22.20;94.20
8002;DHT22;4046;48.774;8.732;2023-06-04T05:11:08;22.20;94.20
8002;DHT22;4046;48.774;8.732;2023-06-04T05:13:34;22.20;94.20
8002;DHT22;4046;48.774;8.732;2023-06-04T05:16:00;22.20;94.20
8002;DHT22;4046;48.774;8.732;2023-06-04T05:18:37;22.20;94.20
8002;DHT22;4046;48.774;8.732;2023-06-04T05:21:07;22.10;94.20
8002;DHT22;4046;48.774;8.732;2023-06-04T05:23:33;22.10;94.20
8002;DHT22;4046;48.774;8.732;2023-06-04T05:26:03;22.10;94.20
8002;DHT22;4046;48.774;8.732;2023-06-04T05:28:30;22.10;94.20
8002;DHT22;4046;48.774;8.732;2023-06-04T05:30:59;22.10;94.20
8002;DHT22;4046;48.774;8.732;2023-06-04T05:33:26;22.10;94.20
8002;DHT22;4046;48.774;8.732;2023-06-04T05:35:53;22.20;94.20
8002;DHT22;4046;48.774;8.732;2023-06-04T05:38:20;22.20;94.60
8002;DHT22;4046;48.774;8.732;2023-06-04T05:40:47;22.20;94.20
8002;DHT22;4046;48.774;8.732;2023-06-04T05:43:13;22.20;94.20
8002;DHT22;4046;48.774;8.732;2023-06-04T05:45:40;22.30;94.20
8002;DHT22;4046;48.774;8.732;2023-06-04T05:48:05;22.20;94.10
8002;DHT22;4046;48.774;8.732;2023-06-04T05:50:31;22.30;94.20
8002;DHT22;4046;48.774;8.732;2023-06-04T05:52:57;22.50;94.20
8002;DHT22;4046;48.774;8.732;2023-06-04T05:55:23;22.30;94.10
8002;DHT22;4046;48.774;8.732;2023-06-04T05:57:50;22.30;94.10
8002;DHT22;4046;48.774;8.732;2023-06-04T06:00:19;22.30;94.10
8002;DHT22;4046;48.774;8.732;2023-06-04T06:02:46;22.30;94.10
8002;DHT22;4046;48.774;8.732;2023-06-04T06:05:15;22.30;94.10
8002;DHT22;4046;48.774;8.732;2023-06-04T06:07:41;22.30;94.10
8002;DHT22;4046;48.774;8.732;2023-06-04T06:10:08;22.30;94.10
8002;DHT22;4046;48.774;8.732;2023-06-04T06:12:35;22.20;94.10
8002;DHT22;4046;48.774;8.732;2023-06-04T06:15:02;22.30;94.20
8002;DHT22;4046;48.774;8.732;2023-06-04T06:17:27;22.30;94.20
8002;DHT22;4046;48.774;8.732;2023-06-04T06:19:54;22.20;94.10
8002;DHT22;4046;48.774;8.732;2023-06-04T06:22:22;22.30;94.10
8002;DHT22;4046;48.774;8.732;2023-06-04T06:24:49;22.30;94.10
8002;DHT22;4046;48.774;8.732;2023-06-04T06:27:15;22.30;94.10
8002;DHT22;4046;48.774;8.732;2023-06-04T06:29:42;22.30;94.10
8002;DHT22;4046;48.774;8.732;2023-06-04T06:32:09;22.30;94.10
8002;DHT22;4046;48.774;8.732;2023-06-04T06:34:35;22.30;94.10
8002;DHT22;4046;48.774;8.732;2023-06-04T06:37:02;22.30;94.10
8002;DHT22;4046;48.774;8.732;2023-06-04T06:39:28;22.30;94.10
8002;DHT22;4046;48.774;8.732;2023-06-04T06:41:54;22.30;94.10
8002;DHT22;4046;48.774;8.732;2023-06-04T06:44:20;22.30;94.10
8002;DHT22;4046;48.774;8.732;2023-06-04T06:46:46;22.30;94.10
8002;DHT22;4046;48.774;8.732;2023-06-04T06:49:17;22.30;94.10
8002;DHT22;4046;48.774;8.732;2023-06-04T06:51:44;22.30;94.10
8002;DHT22;4046;48.774;8.732;2023-06-04T06:54:10;22.30;94.10
8002;DHT22;4046;48.774;8.732;2023-06-04T06:56:36;22.20;94.10
8002;DHT22;4046;48.774;8.732;2023-06-04T06:59:01;22.20;94.00
8002;DHT22;4046;48.774;8.732;2023-06-04T07:01:27;22.20;94.00
8002;DHT22;4046;48.774;8.732;2023-06-04T07:03:53;22.20;94.00
8002;DHT22;4046;48.774;8.732;2023-06-04T07:06:19;22.30;94.10
8002;DHT22;4046;48.774;8.732;2023-06-04T07:08:45;22.20;94.00
8002;DHT22;4046;48.774;8.732;2023-06-04T07:11:13;22.20;94.00
8002;DHT22;4046;48.774;8.732;2023-06-04T07:13:39;22.20;94.00
8002;DHT22;4046;48.774;8.732;2023-06-04T07:16:05;22.20;94.00
8002;DHT22;4046;48.774;8.732;2023-06-04T07:18:32;22.20;94.00
8002;DHT22;4046;48.774;8.732;2023-06-04T07:20:58;22.20;93.90
8002;DHT22;4046;48.774;8.732;2023-06-04T07:23:24;22.20;93.90
8002;DHT22;4046;48.774;8.732;2023-06-04T07:25:51;22.20;94.00
8002;DHT22;4046;48.774;8.732;2023-06-04T07:28:17;22.20;94.00
8002;DHT22;4046;48.774;8.732;2023-06-04T07:30:45;22.20;94.00
8002;DHT22;4046;48.774;8.732;2023-06-04T07:33:11;22.20;94.00
8002;DHT22;4046;48.774;8.732;2023-06-04T07:35:36;22.20;94.00
8002;DHT22;4046;48.774;8.732;2023-06-04T07:38:02;22.20;94.00
8002;DHT22;4046;48.774;8.732;2023-06-04T07:40:28;22.20;94.00
8002;DHT22;4046;48.774;8.732;2023-06-04T07:42:54;22.20;94.10
8002;DHT22;4046;48.774;8.732;2023-06-04T07:45:20;22.10;94.00
8002;DHT22;4046;48.774;8.732;2023-06-04T07:47:46;22.10;94.10
8002;DHT22;4046;48.774;8.732;2023-06-04T07:50:13;22.10;94.10
8002;DHT22;4046;48.774;8.732;2023-06-04T07:52:38;22.10;94.10
8002;DHT22;4046;48.774;8.732;2023-06-04T07:55:04;22.10;94.10
8002;DHT22;4046;48.774;8.732;2023-06-04T07:57:31;22.10;94.20
8002;DHT22;4046;48.774;8.732;2023-06-04T07:59:57;22.10;94.20
8002;DHT22;4046;48.774;8.732;2023-06-04T08:02:23;22.10;94.20
8002;DHT22;4046;48.774;8.732;2023-06-04T08:04:49;22.10;94.20
8002;DHT22;4046;48.774;8.732;2023-06-04T08:07:15;22.10;94.20
8002;DHT22;4046;48.774;8.732;2023-06-04T08:09:41;22.10;94.20
8002;DHT22;4046;48.774;8.732;2023-06-04T08:12:07;22.20;94.20
8002;DHT22;4046;48.774;8.732;2023-06-04T08:14:33;22.20;94.20
8002;DHT22;4046;48.774;8.732;2023-06-04T08:16:59;22.30;94.20
8002;DHT22;4046;48.774;8.732;2023-06-04T08:19:25;22.20;94.20
8002;DHT22;4046;48.774;8.732;2023-06-04T08:21:51;22.30;94.50
8002;DHT22;4046;48.774;8.732;2023-06-04T08:24:17;22.30;94.10
8002;DHT22;4046;48.774;8.732;2023-06-04T08:26:43;22.30;94.10
8002;DHT22;4046;48.774;8.732;2023-06-04T08:29:08;22.30;94.10
8002;DHT22;4046;48.774;8.732;2023-06-04T08:31:35;22.30;94.10
8002;DHT22;4046;48.774;8.732;2023-06-04T08:34:00;22.40;94.10
8002;DHT22;4046;48.774;8.732;2023-06-04T08:36:27;22.40;94.10
8002;DHT22;4046;48.774;8.732;2023-06-04T08:38:53;22.40;94.10
8002;DHT22;4046;48.774;8.732;2023-06-04T08:43:55;22.50;94.00
8002;DHT22;4046;48.774;8.732;2023-06-04T08:46:21;22.50;94.00
8002;DHT22;4046;48.774;8.732;2023-06-04T08:48:49;22.60;94.00
8002;DHT22;4046;48.774;8.732;2023-06-04T08:51:17;22.50;93.90
8002;DHT22;4046;48.774;8.732;2023-06-04T08:53:44;22.60;94.00
8002;DHT22;4046;48.774;8.732;2023-06-04T08:56:13;22.60;93.90
8002;DHT22;4046;48.774;8.732;2023-06-04T08:58:40;22.60;93.90
8002;DHT22;4046;48.774;8.732;2023-06-04T09:01:07;22.60;93.80
8002;DHT22;4046;48.774;8.732;2023-06-04T09:03:36;22.60;93.80
8002;DHT22;4046;48.774;8.732;2023-06-04T09:06:03;22.80;93.90
8002;DHT22;4046;48.774;8.732;2023-06-04T09:08:37;22.70;93.80
8002;DHT22;4046;48.774;8.732;2023-06-04T09:11:05;22.70;93.80
8002;DHT22;4046;48.774;8.732;2023-06-04T09:13:33;22.80;93.70
8002;DHT22;4046;48.774;8.732;2023-06-04T09:16:04;22.80;93.70
8002;DHT22;4046;48.774;8.732;2023-06-04T09:18:32;22.80;93.70
8002;DHT22;4046;48.774;8.732;2023-06-04T09:21:02;22.80;93.70
8002;DHT22;4046;48.774;8.732;2023-06-04T09:23:29;22.80;93.70
8002;DHT22;4046;48.774;8.732;2023-06-04T09:25:56;22.90;93.70
8002;DHT22;4046;48.774;8.732;2023-06-04T09:28:21;22.80;93.60
8002;DHT22;4046;48.774;8.732;2023-06-04T09:30:52;22.90;93.60
8002;DHT22;4046;48.774;8.732;2023-06-04T09:33:17;22.90;93.60
8002;DHT22;4046;48.774;8.732;2023-06-04T09:35:56;22.90;93.60
8002;DHT22;4046;48.774;8.732;2023-06-04T09:38:36;22.90;93.60
8002;DHT22;4046;48.774;8.732;2023-06-04T09:41:02;22.90;93.60
8002;DHT22;4046;48.774;8.732;2023-06-04T09:43:32;22.90;93.50
8002;DHT22;4046;48.774;8.732;2023-06-04T09:46:11;23.00;93.60
8002;DHT22;4046;48.774;8.732;2023-06-04T09:48:38;22.90;93.50
8002;DHT22;4046;48.774;8.732;2023-06-04T09:51:11;23.00;93.50
8002;DHT22;4046;48.774;8.732;2023-06-04T09:53:38;23.00;93.50
8002;DHT22;4046;48.774;8.732;2023-06-04T09:56:05;23.00;93.50
8002;DHT22;4046;48.774;8.732;2023-06-04T09:58:38;23.00;93.50
8002;DHT22;4046;48.774;8.732;2023-06-04T10:01:05;23.00;93.50
8002;DHT22;4046;48.774;8.732;2023-06-04T10:03:33;23.00;93.50
8002;DHT22;4046;48.774;8.732;2023-06-04T10:06:01;23.00;93.50
8002;DHT22;4046;48.774;8.732;2023-06-04T10:08:29;23.00;93.40
8002;DHT22;4046;48.774;8.732;2023-06-04T10:10:58;23.10;93.50
8002;DHT22;4046;48.774;8.732;2023-06-04T10:13:28;23.00;93.40
8002;DHT22;4046;48.774;8.732;2023-06-04T10:15:57;23.10;93.50
8002;DHT22;4046;48.774;8.732;2023-06-04T10:18:24;23.10;93.40
8002;DHT22;4046;48.774;8.732;2023-06-04T10:20:56;23.10;92.80
8002;DHT22;4046;48.774;8.732;2023-06-04T10:23:26;23.10;92.70
8002;DHT22;4046;48.774;8.732;2023-06-04T10:25:52;23.10;92.70
8002;DHT22;4046;48.774;8.732;2023-06-04T10:28:20;23.10;92.80
8002;DHT22;4046;48.774;8.732;2023-06-04T10:30:50;23.20;92.40
8002;DHT22;4046;48.774;8.732;2023-06-04T10:33:20;23.20;92.60
8002;DHT22;4046;48.774;8.732;2023-06-04T10:35:54;23.20;92.60
8002;DHT22;4046;48.774;8.732;2023-06-04T10:38:22;23.20;93.00
8002;DHT22;4046;48.774;8.732;2023-06-04T10:40:48;23.20;92.60
8002;DHT22;4046;48.774;8.732;2023-06-04T10:43:15;23.20;92.70
8002;DHT22;4046;48.774;8.732;2023-06-04T10:45:45;23.20;92.70
8002;DHT22;4046;48.774;8.732;2023-06-04T10:48:12;23.20;92.70
8002;DHT22;4046;48.774;8.732;2023-06-04T10:50:49;23.20;92.70
8002;DHT22;4046;48.774;8.732;2023-06-04T10:53:17;23.20;92.80
8002;DHT22;4046;48.774;8.732;2023-06-04T10:55:44;23.20;92.80
8002;DHT22;4046;48.774;8.732;2023-06-04T10:58:11;23.20;92.90
8002;DHT22;4046;48.774;8.732;2023-06-04T11:00:47;23.20;92.90
8002;DHT22;4046;48.774;8.732;2023-06-04T11:03:14;23.20;92.80
8002;DHT22;4046;48.774;8.732;2023-06-04T11:05:42;23.30;92.90
8002;DHT22;4046;48.774;8.732;2023-06-04T11:08:08;23.20;92.90
8002;DHT22;4046;48.774;8.732;2023-06-04T11:10:38;23.20;92.90
8002;DHT22;4046;48.774;8.732;2023-06-04T11:13:04;23.20;92.90
8002;DHT22;4046;48.774;8.732;2023-06-04T11:15:43;23.20;93.00
8002;DHT22;4046;48.774;8.732;2023-06-04T11:18:17;23.10;93.00
8002;DHT22;4046;48.774;8.732;2023-06-04T11:20:49;23.10;93.00
8002;DHT22;4046;48.774;8.732;2023-06-04T11:23:16;23.10;93.00
8002;DHT22;4046;48.774;8.732;2023-06-04T11:25:42;23.10;93.00
8002;DHT22;4046;48.774;8.732;2023-06-04T11:28:18;23.10;93.10
8002;DHT22;4046;48.774;8.732;2023-06-04T11:30:56;23.10;93.10
8002;DHT22;4046;48.774;8.732;2023-06-04T11:33:22;23.10;93.10
8002;DHT22;4046;48.774;8.732;2023-06-04T11:35:49;23.10;93.50
8002;DHT22;4046;48.774;8.732;2023-06-04T11:38:14;23.10;93.10
8002;DHT22;4046;48.774;8.732;2023-06-04T11:40:40;23.10;93.10
8002;DHT22;4046;48.774;8.732;2023-06-04T11:43:11;23.10;93.10
8002;DHT22;4046;48.774;8.732;2023-06-04T11:45:37;23.10;93.20
8002;DHT22;4046;48.774;8.732;2023-06-04T11:48:05;23.00;93.10
8002;DHT22;4046;48.774;8.732;2023-06-04T11:50:31;23.20;93.30
8002;DHT22;4046;48.774;8.732;2023-06-04T11:52:58;23.10;93.30
8002;DHT22;4046;48.774;8.732;2023-06-04T11:55:25;23.00;93.20
8002;DHT22;4046;48.774;8.732;2023-06-04T11:57:51;23.10;93.20
8002;DHT22;4046;48.774;8.732;2023-06-04T12:00:18;23.00;93.20
8002;DHT22;4046;48.774;8.732;2023-06-04T12:02:51;23.00;93.20
8002;DHT22;4046;48.774;8.732;2023-06-04T12:05:28;23.00;93.20
8002;DHT22;4046;48.774;8.732;2023-06-04T12:08:04;23.00;93.20
8002;DHT22;4046;48.774;8.732;2023-06-04T12:10:40;23.00;93.30
8002;DHT22;4046;48.774;8.732;2023-06-04T12:13:06;23.00;93.30
8002;DHT22;4046;48.774;8.732;2023-06-04T12:15:35;23.00;93.30
8002;DHT22;4046;48.774;8.732;2023-06-04T12:18:01;23.00;93.30
8002;DHT22;4046;48.774;8.732;2023-06-04T12:20:39;23.00;93.30
8002;DHT22;4046;48.774;8.732;2023-06-04T12:23:06;23.00;93.30
8002;DHT22;4046;48.774;8.732;2023-06-04T12:25:34;23.10;93.50
8002;DHT22;4046;48.774;8.732;2023-06-04T12:28:00;23.00;93.30
8002;DHT22;4046;48.774;8.732;2023-06-04T12:30:39;23.00;93.30
8002;DHT22;4046;48.774;8.732;2023-06-04T12:33:05;23.00;93.30
8002;DHT22;4046;48.774;8.732;2023-06-04T12:35:31;23.00;93.30
8002;DHT22;4046;48.774;8.732;2023-06-04T12:37:57;23.00;93.30
8002;DHT22;4046;48.774;8.732;2023-06-04T12:40:23;23.00;93.30
8002;DHT22;4046;48.774;8.732;2023-06-04T12:42:52;23.00;93.30
8002;DHT22;4046;48.774;8.732;2023-06-04T12:45:18;23.10;93.30
8002;DHT22;4046;48.774;8.732;2023-06-04T12:47:44;23.00;93.30
8002;DHT22;4046;48.774;8.732;2023-06-04T12:50:10;23.00;93.30
8002;DHT22;4046;48.774;8.732;2023-06-04T12:52:37;23.00;93.30
8002;DHT22;4046;48.774;8.732;2023-06-04T12:55:02;23.00;93.30
8002;DHT22;4046;48.774;8.732;2023-06-04T12:57:28;23.00;93.30
8002;DHT22;4046;48.774;8.732;2023-06-04T12:59:55;23.00;93.30
8002;DHT22;4046;48.774;8.732;2023-06-04T13:02:23;23.00;93.30
8002;DHT22;4046;48.774;8.732;2023-06-04T13:04:48;23.20;93.40
8002;DHT22;4046;48.774;8.732;2023-06-04T13:07:18;23.00;93.30
8002;DHT22;4046;48.774;8.732;2023-06-04T13:09:44;23.00;93.30
8002;DHT22;4046;48.774;8.732;2023-06-04T13:12:12;23.00;93.30
8002;DHT22;4046;48.774;8.732;2023-06-04T13:14:38;23.00;93.30
8002;DHT22;4046;48.774;8.732;2023-06-04T13:17:04;23.00;93.30
8002;DHT22;4046;48.774;8.732;2023-06-04T13:19:31;23.10;93.40
8002;DHT22;4046;48.774;8.732;2023-06-04T13:21:57;23.00;93.30
8002;DHT22;4046;48.774;8.732;2023-06-04T13:24:23;23.00;93.20
8002;DHT22;4046;48.774;8.732;2023-06-04T13:26:49;23.00;93.30
8002;DHT22;4046;48.774;8.732;2023-06-04T13:29:15;23.00;93.30
8002;DHT22;4046;48.774;8.732;2023-06-04T13:31:42;23.00;93.30
8002;DHT22;4046;48.774;8.732;2023-06-04T13:34:09;23.00;93.30
8002;DHT22;4046;48.774;8.732;2023-06-04T13:36:35;23.00;93.30
8002;DHT22;4046;48.774;8.732;2023-06-04T13:39:01;23.00;93.30
8002;DHT22;4046;48.774;8.732;2023-06-04T13:41:26;23.00;93.30
8002;DHT22;4046;48.774;8.732;2023-06-04T13:43:52;23.00;93.30
8002;DHT22;4046;48.774;8.732;2023-06-04T13:46:18;23.00;93.40
8002;DHT22;4046;48.774;8.732;2023-06-04T13:48:44;23.00;93.30
8002;DHT22;4046;48.774;8.732;2023-06-04T13:51:10;23.00;93.30
8002;DHT22;4046;48.774;8.732;2023-06-04T13:53:35;23.00;93.40
8002;DHT22;4046;48.774;8.732;2023-06-04T13:56:02;23.00;93.40
8002;DHT22;4046;48.774;8.732;2023-06-04T13:58:28;23.00;93.30
8002;DHT22;4046;48.774;8.732;2023-06-04T14:00:54;23.00;93.30
8002;DHT22;4046;48.774;8.732;2023-06-04T14:03:20;23.00;93.40
8002;DHT22;4046;48.774;8.732;2023-06-04T14:05:46;23.00;93.40
8002;DHT22;4046;48.774;8.732;2023-06-04T14:08:13;23.00;93.30
8002;DHT22;4046;48.774;8.732;2023-06-04T14:10:38;23.00;93.20
8002;DHT22;4046;48.774;8.732;2023-06-04T14:13:07;23.00;93.30
8002;DHT22;4046;48.774;8.732;2023-06-04T14:15:33;23.00;93.30
8002;DHT22;4046;48.774;8.732;2023-06-04T14:17:59;23.00;93.40
8002;DHT22;4046;48.774;8.732;2023-06-04T14:20:29;23.00;93.30
8002;DHT22;4046;48.774;8.732;2023-06-04T14:22:55;23.00;93.30
8002;DHT22;4046;48.774;8.732;2023-06-04T14:25:21;22.80;93.20
8002;DHT22;4046;48.774;8.732;2023-06-04T14:27:47;23.00;93.30
8002;DHT22;4046;48.774;8.732;2023-06-04T14:30:16;23.00;93.30
8002;DHT22;4046;48.774;8.732;2023-06-04T14:32:42;23.00;93.30
8002;DHT22;4046;48.774;8.732;2023-06-04T14:35:08;23.00;93.30
8002;DHT22;4046;48.774;8.732;2023-06-04T14:37:33;23.00;93.30
8002;DHT22;4046;48.774;8.732;2023-06-04T14:39:59;23.00;93.30
8002;DHT22;4046;48.774;8.732;2023-06-04T14:42:25;23.00;93.40
8002;DHT22;4046;48.774;8.732;2023-06-04T14:44:51;23.00;93.30
8002;DHT22;4046;48.774;8.732;2023-06-04T14:47:17;23.00;93.30
8002;DHT22;4046;48.774;8.732;2023-06-04T14:49:43;23.00;93.30
8002;DHT22;4046;48.774;8.732;2023-06-04T14:52:09;23.00;93.30
8002;DHT22;4046;48.774;8.732;2023-06-04T14:54:36;23.00;93.30
8002;DHT22;4046;48.774;8.732;2023-06-04T14:57:01;23.00;93.30
8002;DHT22;4046;48.774;8.732;2023-06-04T14:59:28;23.00;93.30
8002;DHT22;4046;48.774;8.732;2023-06-04T15:01:55;23.00;93.30
8002;DHT22;4046;48.774;8.732;2023-06-04T15:04:23;23.20;93.40
8002;DHT22;4046;48.774;8.732;2023-06-04T15:06:49;23.00;93.20
8002;DHT22;4046;48.774;8.732;2023-06-04T15:09:15;23.00;93.30
8002;DHT22;4046;48.774;8.732;2023-06-04T15:11:41;23.00;93.30
8002;DHT22;4046;48.774;8.732;2023-06-04T15:14:07;23.00;93.30
8002;DHT22;4046;48.774;8.732;2023-06-04T15:16:33;23.00;93.30
8002;DHT22;4046;48.774;8.732;2023-06-04T15:18:59;23.00;93.30
8002;DHT22;4046;48.774;8.732;2023-06-04T15:21:25;23.00;93.30
8002;DHT22;4046;48.774;8.732;2023-06-04T15:23:52;23.00;93.30
8002;DHT22;4046;48.774;8.732;2023-06-04T15:26:19;23.00;93.30
8002;DHT22;4046;48.774;8.732;2023-06-04T15:28:45;23.00;93.40
8002;DHT22;4046;48.774;8.732;2023-06-04T15:31:14;23.00;93.30
8002;DHT22;4046;48.774;8.732;2023-06-04T15:33:40;23.00;93.30
8002;DHT22;4046;48.774;8.732;2023-06-04T15:36:05;23.20;93.40
8002;DHT22;4046;48.774;8.732;2023-06-04T15:38:31;23.00;93.30
8002;DHT22;4046;48.774;8.732;2023-06-04T15:40:58;23.00;93.30
8002;DHT22;4046;48.774;8.732;2023-06-04T15:43:24;23.00;93.20
8002;DHT22;4046;48.774;8.732;2023-06-04T15:45:51;23.00;93.30
8002;DHT22;4046;48.774;8.732;2023-06-04T15:48:17;23.20;93.40
8002;DHT22;4046;48.774;8.732;2023-06-04T15:50:44;22.70;93.10
8002;DHT22;4046;48.774;8.732;2023-06-04T15:53:09;23.00;93.20
8002;DHT22;4046;48.774;8.732;2023-06-04T15:55:35;23.00;93.20
8002;DHT22;4046;48.774;8.732;2023-06-04T15:58:02;23.10;93.30
8002;DHT22;4046;48.774;8.732;2023-06-04T16:00:27;23.00;93.20
8002;DHT22;4046;48.774;8.732;2023-06-04T16:02:53;23.00;93.20
8002;DHT22;4046;48.774;8.732;2023-06-04T16:05:19;23.00;93.20
8002;DHT22;4046;48.774;8.732;2023-06-04T16:07:47;23.00;93.20
8002;DHT22;4046;48.774;8.732;2023-06-04T16:10:13;23.00;93.10
8002;DHT22;4046;48.774;8.732;2023-06-04T16:12:39;23.20;93.30